x

Neah Bay, - 6nm North Of Cape Flattery, Wa (traffic Separation Lighted Buoy) (46087) Wave Buoy

10:20am - Fri 18th Aug 2017 All times are PDT. -7 hours from GMT.

  • Sig Wave height 4.9ft
  • Swell Direction
  • Peak Period 10s
  • Average Period 7s
  • Wind
    13mph, 16mph gusts
  • Sea Temp 54°f
  • 空気 Temp 55°f
  • Sea Pressure 1021mb
  • Neah Bay, - 6nm North Of Cape Flattery, Wa     (traffic Separation Lighted Buoy)
  • Neah Bay, - 6nm North Of Cape Flattery, Wa     (traffic Separation Lighted Buoy)

More Historic Weather Station data

Upgrade to MSW Pro to gain access to the past 30 days of data for over 8000 Wavebouys and Weather Stations around the globe.

Join

Comparision Forecast

View Surf forecast
   
Fri 08/18 10:20am 5ft 10s 7s 13 16 mph 1021mb 54f 55f
9:50am 5ft 11s 7s 11 13 mph 1020.9mb 54f 55f
9:20am 4.5ft 11s 7s 11 13 mph 1020.8mb 54f 55f
8:50am 5.5ft 11s 8s 9 11 mph 1020.9mb 54f 55f
8:20am 5.5ft 10s 8s 9 11 mph 1020.9mb 54f 55f
7:50am 5ft 10s 8s 7 9 mph 1021.1mb 54f 55f
7:20am 5ft 11s 8s 7 7 mph 1021.2mb 54f 55f
6:50am 5.5ft 11s 8s 4 7 mph 1021.2mb 54f 55f
6:20am 5ft 11s 8s 4 4 mph 1021.1mb 54f 55f
5:50am 5ft 11s 8s 4 4 mph 1021.1mb 54f 55f
5:20am 5ft 11s 9s 4 7 mph 1021.1mb 54f 55f
4:50am 5ft 10s 8s 4 7 mph 1021.2mb 54f 55f
4:20am 5ft 12s 9s 4 7 mph 1021.1mb 54f 55f
3:50am 5.5ft 11s 9s 7 7 mph 1021.1mb 54f 55f
3:20am 6ft 10s 9s 7 7 mph 1021mb 54f 55f
2:50am 6ft 11s 9s 4 7 mph 1021.1mb 54f 55f
2:20am 6ft 10s 8s 4 7 mph 1021.3mb 54f 55f
1:50am 5ft 10s 8s 4 4 mph 1021.3mb 54f 55f
1:20am 5.5ft 11s 8s 7 7 mph 1021.4mb 54f 55f
12:50am 6ft 9s 8s 9 9 mph 1021.3mb 54f 55f
12:20am 6ft 10s 8s 9 9 mph 1021.4mb 54f 55f
Thu 08/17 11:50pm 6ft 11s 8s 7 9 mph 1021.5mb 55f 55f
11:20pm 6ft 11s 8s 7 9 mph 1021.7mb 55f 55f
10:50pm 5ft 10s 8s 9 11 mph 1021.9mb 55f 56f
10:20pm 6ft 10s 8s 9 11 mph 1021.9mb 55f 55f
9:50pm 6ft 11s 8s 9 11 mph 1021.9mb 55f 55f
9:20pm 7ft 10s 8s 9 11 mph 1022.2mb 55f 55f
8:50pm 7ft 11s 8s 9 11 mph 1022mb 55f 56f
8:20pm 7.5ft 10s 9s 9 11 mph 1022mb 55f 55f
7:50pm 7ft 11s 8s 9 9 mph 1021.9mb 54f 55f
7:20pm 7ft 11s 9s 9 11 mph 1022mb 54f 56f
6:20pm 6.5ft 11s 8s 7 9 mph 1022.1mb 54f 56f
5:50pm 7ft 11s 9s 7 9 mph 1022.3mb 55f 56f
5:20pm 7ft 11s 9s 7 9 mph 1022.5mb 55f 56f
4:50pm 6ft 11s 9s 7 9 mph 1022.7mb 55f 56f
4:20pm 6.5ft 11s 8s 7 9 mph 1022.9mb 55f 56f
3:50pm 6ft 11s 8s 7 9 mph 1023.1mb 55f 56f
3:20pm 6.5ft 11s 8s 4 7 mph 1023.3mb 55f 56f
2:50pm 6ft 11s 8s 7 9 mph 1023.3mb 55f 55f
2:20pm 6.5ft 11s 8s 9 9 mph 1023.3mb 55f 55f
1:50pm 6ft 12s 8s 7 9 mph 1023.2mb 55f 55f
1:20pm 6.5ft 11s 8s 4 7 mph 1023mb 54f 55f
12:50pm 6ft 11s 8s 4 7 mph 1023mb 54f 55f
12:20pm 7ft 11s 8s 4 7 mph 1022.9mb 54f 55f
11:50am 7ft 11s 8s 4 7 mph 1022.8mb 54f 55f
11:20am 7ft 11s 8s  -  2 mph 1022.7mb 54f 54f
10:50am 7ft 11s 8s  -  2 mph 1022.4mb 54f 54f
10:20am 8ft 11s 8s 2 4 mph 1022.3mb 53f 54f
9:50am 6.5ft 11s 7s 2 7 mph 1022.1mb 53f 54f
9:20am 7.5ft 11s 8s 2 7 mph 1022mb 53f 53f
8:50am 8ft 10s 8s 2 4 mph 1021.9mb 53f 54f
8:20am 7.5ft 11s 8s 2 2 mph 1021.9mb 53f 54f
7:50am 7ft 11s 8s  -  2 mph 1021.9mb 53f 54f
7:20am 7.5ft 10s 8s 2 2 mph 1021.4mb 53f 54f
6:50am 7ft 10s 8s  -  2 mph 1021.2mb 54f 54f
6:20am 6.5ft 10s 8s 2 4 mph 1021mb 54f 54f
5:50am 7ft 11s 8s 4 7 mph 1020.9mb 53f 55f
5:20am 7ft 10s 8s 4 9 mph 1020.7mb 53f 55f
4:50am 7ft 11s 8s 7 9 mph 1020.8mb 53f 55f
4:20am 6ft 11s 8s 7 9 mph 1020.8mb 53f 55f
3:50am 6ft 10s 8s 7 9 mph 1020.7mb 53f 55f
3:20am 6ft 11s 8s 9 11 mph 1020.6mb 53f 56f
2:50am 6ft 10s 8s 4 7 mph 1020.6mb 53f 55f
2:20am 5.5ft 11s 8s 7 9 mph 1020.6mb 54f 55f
1:50am 5ft 11s 8s 7 9 mph 1020.4mb 54f 55f
1:20am 5.5ft 10s 8s 7 9 mph 1020.3mb 54f 55f
12:50am 5.5ft 10s 8s 7 9 mph 1020.3mb 54f 55f
12:20am 4.5ft 9s 7s 9 11 mph 1020.2mb 54f 56f
Wed 08/16 11:50pm 5.5ft 10s 8s 7 9 mph 1020.2mb 54f 55f
11:20pm 5ft 9s 8s 9 11 mph 1020.1mb 54f 56f
10:50pm 4.5ft 9s 7s 11 13 mph 1019.9mb 54f 57f
10:20pm 4ft 8s 7s 7 9 mph 1020mb 54f 57f
9:50pm 4.5ft 10s 7s 9 11 mph 1019.8mb 54f 56f
9:20pm 4.5ft 8s 7s 7 9 mph 1019.6mb 54f 55f
8:50pm 4.5ft 10s 7s 7 7 mph 1019.5mb 54f 55f
8:20pm 5ft 9s 7s 7 9 mph 1019.4mb 54f 55f
7:50pm 5ft 9s 8s 9 11 mph 1019.3mb 54f 55f
7:20pm 5ft 10s 7s 9 11 mph 1019.3mb 54f 55f
6:50pm 5ft 10s 7s 9 9 mph 1019.3mb 54f 55f
6:20pm 5ft 10s 8s 9 11 mph 1019.4mb 55f 55f
5:50pm 5.5ft 9s 8s 7 9 mph 1019.5mb 54f 55f
5:20pm 5ft 9s 8s 9 11 mph 1019.6mb 54f 55f
4:50pm 5ft 9s 8s 9 9 mph 1019.7mb 54f 55f
4:20pm 5ft 10s 8s 9 11 mph 1019.8mb 54f 55f
3:50pm 5ft 10s 8s 9 11 mph 1019.9mb 53f 55f
3:20pm 5ft 10s 8s 11 13 mph 1020mb 53f 56f
2:50pm 5ft 10s 8s 11 13 mph 1020mb 53f 56f
2:20pm 5.5ft 9s 8s 9 13 mph 1020.1mb 53f 56f
1:50pm 5ft 9s 7s 4 7 mph 1020.1mb 53f 55f
1:20pm 5ft 11s 8s 7 9 mph 1020mb 53f 55f
12:50pm 5ft 9s 8s 7 9 mph 1020mb 53f 55f
12:20pm 5ft 9s 7s 7 7 mph 1020mb 53f 55f
11:50am 5ft 10s 8s 4 4 mph 1019.8mb 53f 54f
11:20am 4.5ft 10s 7s 4 7 mph 1019.7mb 53f 54f
10:50am 4.5ft 10s 7s 7 7 mph 1019.3mb 53f 54f
10:20am 5ft 10s 7s 4 7 mph 1019.2mb 53f 54f
9:50am 4.5ft 10s 7s 4 4 mph 1019.3mb 53f 54f
9:20am 5ft 10s 7s 4 4 mph 1019.2mb 53f 55f
8:50am 5ft 10s 7s 2 4 mph 1019.1mb 53f 55f
8:20am 5.5ft 10s 7s 4 4 mph 1019.1mb 53f 55f
7:50am 5ft 9s 7s 4 4 mph 1019mb 53f 55f
7:20am 5ft 10s 7s 4 4 mph 1018.9mb 53f 55f
6:50am 5.5ft 9s 7s 4 4 mph 1018.6mb 53f 55f
6:20am 6ft 9s 8s 4 4 mph 1018.3mb 53f 54f
5:50am 6ft 10s 8s 2 4 mph 1018.1mb 53f 54f
5:20am 5.5ft 9s 8s 2 4 mph 1018mb 53f 54f
4:50am 6ft 10s 8s 2 4 mph 1018.1mb 53f 54f
4:20am 5ft 10s 8s 4 4 mph 1018.1mb 53f 54f
3:50am 5.5ft 9s 8s 4 7 mph 1018mb 53f 54f
3:20am 5ft 10s 8s 4 7 mph 1017.9mb 53f 54f
2:50am 5.5ft 10s 8s 4 7 mph 1017.8mb 53f 54f
2:20am 4.5ft 9s 8s 7 9 mph 1017.6mb 53f 55f
1:20am 4.5ft 10s 7s 7 9 mph 1017.5mb 54f 55f
12:50am 4.5ft 10s 7s 7 9 mph 1017.4mb 53f 56f
12:20am 4.5ft 10s 7s 7 9 mph 1017.3mb 53f 56f
Tue 08/15 11:50pm 4.5ft 10s 7s 7 9 mph 1017.3mb 53f 56f
11:20pm 4.5ft 11s 6s 9 11 mph 1017.2mb 54f 56f
10:50pm 3.5ft 10s 6s 7 7 mph 1017.1mb 54f 55f
10:20pm 3.5ft 10s 6s 7 7 mph 1016.9mb 54f 55f
9:50pm 3.5ft 10s 5s 7 7 mph 1016.8mb 54f 55f
9:20pm 3.5ft 11s 6s 9 9 mph 1016.5mb 54f 55f
8:50pm 3ft 9s 6s 4 7 mph 1016.2mb 54f 55f
8:20pm 3ft 9s 6s 7 7 mph 1016.1mb 54f 55f
7:50pm 3ft 8s 6s 9 11 mph 1015.9mb 54f 55f
7:20pm 3ft 8s 5s 9 11 mph 1015.9mb 54f 56f
6:50pm 2.5ft 9s 6s 11 11 mph 1016mb 54f 56f
6:20pm 2.5ft 8s 6s 9 11 mph 1016mb 54f 56f
5:50pm 2.5ft 8s 6s 9 11 mph 1016.1mb 54f 56f
5:20pm 3ft 9s 6s 9 9 mph 1016.1mb 54f 56f
4:50pm 3ft 9s 7s 7 9 mph 1016.2mb 54f 55f
4:20pm 2.5ft 9s 7s 9 11 mph 1016.3mb 54f 55f
3:50pm 3ft 9s 7s 7 7 mph 1016.3mb 54f 54f
3:20pm 3ft 9s 7s 4 7 mph 1016.5mb 54f 54f
2:50pm 3ft 8s 7s 9 11 mph 1016.6mb 54f 54f
2:20pm 3ft 9s 7s 9 11 mph 1016.5mb 54f 54f
1:50pm 3.5ft 9s 7s 7 7 mph 1016.2mb 54f 54f
1:20pm 3ft 9s 7s 7 9 mph 1016.2mb 54f 53f
12:50pm 3.5ft 8s 7s 4 4 mph 1016.1mb 54f 53f
12:20pm 3.5ft 8s 7s 7 9 mph 1016.2mb 54f 52f
11:50am 3.5ft 9s 7s 7 9 mph 1015.9mb 53f 52f
11:20am 3ft 9s 7s 9 11 mph 1015.8mb 53f 53f
10:50am 3.5ft 9s 7s 9 11 mph 1015.6mb 53f 53f
10:20am 3.5ft 9s 7s 4 7 mph 1015.4mb 53f 53f
9:50am 3.5ft 9s 7s  -  0 mph 1015.1mb 53f 53f
9:20am 3.5ft 9s 7s 4 7 mph 1015.3mb 53f 52f
8:50am 4ft 9s 7s  -  2 mph 1014.8mb 53f 52f
8:20am 4ft 8s 7s  -  2 mph 1014.9mb 53f 52f
7:50am 4ft 8s 7s 2 2 mph 1014.7mb 53f 52f
7:20am 4ft 9s 7s 4 7 mph 1013.9mb 53f 51f
6:50am 4.5ft 9s 7s 4 7 mph 1014.1mb 53f 51f
6:20am 4.5ft 9s 7s 2 4 mph 1014mb 53f 52f
5:50am 5ft 9s 7s 2 4 mph 1013.8mb 53f 52f
5:20am 4.5ft 9s 7s 2 2 mph 1013.7mb 53f 53f
4:50am 4.5ft 9s 7s 4 7 mph 1013.8mb 53f 53f
4:20am 4ft 9s 7s 4 7 mph 1013.6mb 53f 53f
3:50am 4.5ft 9s 7s  -  2 mph 1013.7mb 53f 52f
3:20am 4.5ft 9s 8s  -  2 mph 1013.7mb 53f 51f
2:50am 4.5ft 10s 8s 2 2 mph 1013.7mb 53f 52f
2:20am 4ft 9s 7s 2 4 mph 1013.7mb 53f 53f
1:50am 4ft 10s 7s 4 7 mph 1013.7mb 53f 54f
1:20am 4.5ft 9s 8s 4 7 mph 1013.7mb 53f 54f
12:50am 5ft 10s 8s 7 9 mph 1013.8mb 53f 54f
12:20am 4.5ft 10s 8s 7 7 mph 1013.8mb 53f 54f
Mon 08/14 11:50pm 5ft 10s 8s 7 9 mph 1013.8mb 53f 54f
11:20pm 5ft 9s 8s 7 7 mph 1013.7mb 54f 54f
10:50pm 5ft 9s 8s 7 9 mph 1013.9mb 54f 55f
10:20pm 4.5ft 9s 7s 7 9 mph 1013.9mb 54f 55f
9:50pm 4.5ft 9s 8s 7 7 mph 1014.1mb 55f 54f
9:20pm 4.5ft 10s 7s 7 7 mph 1014.1mb 55f 54f
8:50pm 4.5ft 10s 7s 7 9 mph 1014.2mb 55f 55f
8:20pm 5ft 9s 7s 4 7 mph 1014.4mb 55f 54f
7:50pm 5ft 9s 7s 9 9 mph 1014.2mb 55f 54f
7:20pm 5ft 9s 7s 7 11 mph 1014.4mb 55f 55f
6:50pm 4.5ft 10s 7s 9 9 mph 1014.3mb 56f 55f